Terminal Aerodrome Forecast
Issued by NWS

Home | Current Version | Previous Version | Text Only | Print | Product List | Glossary On
Versions: 1 2 3 4 5 6 7 8 9 10 11 12 13 14 15
000
FTUS44 KLIX 242336
TAFHDC
TAF
KHDC 242336Z 2500/2524 26005KT P6SM SCT045 BKN150
     FM250200 VRB03KT P6SM VCSH SCT045 BKN140
     FM250700 VRB03KT P6SM VCTS SCT045CB BKN110
     FM250900 VRB03KT P6SM SCT045 BKN090 PROB30 2509/2515 4SM TSRA
      OVC025CB
     FM251500 27004KT P6SM FEW035 SCT150 PROB30 2515/2521 4SM TSRA
      BKN035CB=

USA.gov is the U.S. government's official web portal to all federal, state and local government web resources and services.